sensor_id;sensor_type;location;lat;lon;timestamp;pressure;altitude;pressure_sealevel;temperature;humidity
27805;BME280;15183;51.350;11.102;2022-09-09T00:02:18;99523.34;;;19.37;63.60
27805;BME280;15183;51.350;11.102;2022-09-09T00:05:14;99544.31;;;19.55;63.92
27805;BME280;15183;51.350;11.102;2022-09-09T00:07:51;99494.69;;;19.33;63.09
27805;BME280;15183;51.350;11.102;2022-09-09T00:13:24;99527.50;;;19.63;62.85
27805;BME280;15183;51.350;11.102;2022-09-09T00:16:27;99543.19;;;19.75;63.10
27805;BME280;15183;51.350;11.102;2022-09-09T00:19:19;99544.50;;;19.77;62.53
27805;BME280;15183;51.350;11.102;2022-09-09T00:22:07;99542.00;;;19.81;62.88
27805;BME280;15183;51.350;11.102;2022-09-09T00:24:53;99545.19;;;19.83;62.63
27805;BME280;15183;51.350;11.102;2022-09-09T00:27:44;99521.06;;;19.78;62.62
27805;BME280;15183;51.350;11.102;2022-09-09T00:30:27;99541.63;;;19.88;62.32
27805;BME280;15183;51.350;11.102;2022-09-09T00:33:10;99475.28;;;19.36;62.54
27805;BME280;15183;51.350;11.102;2022-09-09T00:35:42;99541.88;;;19.72;62.46
27805;BME280;15183;51.350;11.102;2022-09-09T00:38:23;99521.22;;;19.53;62.62
27805;BME280;15183;51.350;11.102;2022-09-09T00:41:03;99528.25;;;19.49;62.70
27805;BME280;15183;51.350;11.102;2022-09-09T00:43:38;99469.97;;;18.92;63.20
27805;BME280;15183;51.350;11.102;2022-09-09T00:46:31;99537.72;;;19.28;63.15
27805;BME280;15183;51.350;11.102;2022-09-09T00:49:45;99533.34;;;19.13;63.34
27805;BME280;15183;51.350;11.102;2022-09-09T00:55:47;99545.69;;;18.94;63.44
27805;BME280;15183;51.350;11.102;2022-09-09T00:58:15;99551.56;;;18.97;63.80
27805;BME280;15183;51.350;11.102;2022-09-09T01:00:51;99531.06;;;18.82;63.53
27805;BME280;15183;51.350;11.102;2022-09-09T01:03:35;99546.75;;;18.93;63.53
27805;BME280;15183;51.350;11.102;2022-09-09T01:06:35;99540.78;;;18.77;63.69
27805;BME280;15183;51.350;11.102;2022-09-09T01:10:11;99550.56;;;18.68;63.73
27805;BME280;15183;51.350;11.102;2022-09-09T01:14:55;99480.22;;;17.98;63.78
27805;BME280;15183;51.350;11.102;2022-09-09T01:17:58;99550.00;;;18.47;64.46
27805;BME280;15183;51.350;11.102;2022-09-09T01:20:27;99555.72;;;18.64;64.41
27805;BME280;15183;51.350;11.102;2022-09-09T01:28:16;99558.88;;;18.91;63.65
27805;BME280;15183;51.350;11.102;2022-09-09T01:30:48;99493.47;;;18.62;63.41
27805;BME280;15183;51.350;11.102;2022-09-09T01:33:17;99516.78;;;18.86;63.43
27805;BME280;15183;51.350;11.102;2022-09-09T01:36:09;99511.28;;;18.97;63.05
27805;BME280;15183;51.350;11.102;2022-09-09T01:38:38;99543.81;;;19.14;63.39
27805;BME280;15183;51.350;11.102;2022-09-09T01:41:05;99501.47;;;18.87;62.83
27805;BME280;15183;51.350;11.102;2022-09-09T01:43:35;99533.00;;;19.19;62.70
27805;BME280;15183;51.350;11.102;2022-09-09T01:46:05;99542.81;;;19.29;62.85
27805;BME280;15183;51.350;11.102;2022-09-09T01:48:32;99483.94;;;18.94;62.62
27805;BME280;15183;51.350;11.102;2022-09-09T01:50:59;99507.66;;;19.06;62.26
27805;BME280;15183;51.350;11.102;2022-09-09T01:53:25;99520.22;;;19.11;62.52
27805;BME280;15183;51.350;11.102;2022-09-09T02:04:11;99544.09;;;19.32;62.07
27805;BME280;15183;51.350;11.102;2022-09-09T02:06:46;99497.31;;;19.00;62.00
27805;BME280;15183;51.350;11.102;2022-09-09T02:09:19;99534.00;;;19.23;61.89
27805;BME280;15183;51.350;11.102;2022-09-09T02:11:51;99495.22;;;18.91;62.19
27805;BME280;15183;51.350;11.102;2022-09-09T02:14:32;99545.94;;;19.17;62.39
27805;BME280;15183;51.350;11.102;2022-09-09T02:17:11;99487.38;;;18.76;62.13
27805;BME280;15183;51.350;11.102;2022-09-09T02:19:55;99533.03;;;18.95;62.72
27805;BME280;15183;51.350;11.102;2022-09-09T02:22:26;99526.66;;;18.91;62.83
27805;BME280;15183;51.350;11.102;2022-09-09T02:24:57;99526.34;;;18.92;62.99
27805;BME280;15183;51.350;11.102;2022-09-09T02:27:25;99511.19;;;18.83;63.06
27805;BME280;15183;51.350;11.102;2022-09-09T02:29:53;99524.03;;;18.86;62.78
27805;BME280;15183;51.350;11.102;2022-09-09T02:32:23;99508.72;;;18.86;62.55
27805;BME280;15183;51.350;11.102;2022-09-09T02:34:55;99526.88;;;18.94;62.63
27805;BME280;15183;51.350;11.102;2022-09-09T02:37:29;99530.09;;;18.97;62.58
27805;BME280;15183;51.350;11.102;2022-09-09T02:39:56;99532.22;;;19.00;62.27
27805;BME280;15183;51.350;11.102;2022-09-09T02:42:23;99546.06;;;19.07;62.24
27805;BME280;15183;51.350;11.102;2022-09-09T02:44:50;99533.22;;;19.04;62.62
27805;BME280;15183;51.350;11.102;2022-09-09T02:50:52;99513.22;;;18.91;62.57
27805;BME280;15183;51.350;11.102;2022-09-09T02:56:19;99492.59;;;18.67;62.10
27805;BME280;15183;51.350;11.102;2022-09-09T02:58:48;99550.34;;;19.08;62.58
27805;BME280;15183;51.350;11.102;2022-09-09T03:01:15;99479.91;;;18.73;62.01
27805;BME280;15183;51.350;11.102;2022-09-09T03:03:42;99500.66;;;18.86;62.53
27805;BME280;15183;51.350;11.102;2022-09-09T03:06:10;99500.66;;;18.86;62.20
27805;BME280;15183;51.350;11.102;2022-09-09T03:08:38;99536.03;;;19.13;62.34
27805;BME280;15183;51.350;11.102;2022-09-09T03:11:05;99550.63;;;19.26;62.03
27805;BME280;15183;51.350;11.102;2022-09-09T03:13:31;99519.88;;;19.18;61.99
27805;BME280;15183;51.350;11.102;2022-09-09T03:15:58;99502.59;;;19.05;62.27
27805;BME280;15183;51.350;11.102;2022-09-09T03:18:25;99559.19;;;19.47;62.48
27805;BME280;15183;51.350;11.102;2022-09-09T03:20:52;99560.00;;;19.47;62.54
27805;BME280;15183;51.350;11.102;2022-09-09T03:23:20;99502.75;;;19.14;62.46
27805;BME280;15183;51.350;11.102;2022-09-09T03:25:49;99546.00;;;19.31;62.31
27805;BME280;15183;51.350;11.102;2022-09-09T03:28:16;99503.97;;;19.02;62.25
27805;BME280;15183;51.350;11.102;2022-09-09T03:30:42;99486.59;;;18.75;62.63
27805;BME280;15183;51.350;11.102;2022-09-09T03:33:09;99505.41;;;18.75;62.90
27805;BME280;15183;51.350;11.102;2022-09-09T03:35:36;99485.94;;;18.64;63.25
27805;BME280;15183;51.350;11.102;2022-09-09T03:38:02;99532.25;;;18.94;62.80
27805;BME280;15183;51.350;11.102;2022-09-09T03:40:29;99529.03;;;18.92;62.83
27805;BME280;15183;51.350;11.102;2022-09-09T03:42:57;99464.53;;;18.59;62.99
27805;BME280;15183;51.350;11.102;2022-09-09T03:45:23;99527.13;;;18.98;62.84
27805;BME280;15183;51.350;11.102;2022-09-09T03:47:49;99475.19;;;18.64;62.99
27805;BME280;15183;51.350;11.102;2022-09-09T03:50:16;99509.03;;;18.85;62.92
27805;BME280;15183;51.350;11.102;2022-09-09T03:52:44;99476.50;;;18.67;62.65
27805;BME280;15183;51.350;11.102;2022-09-09T03:55:11;99469.69;;;18.75;62.68
27805;BME280;15183;51.350;11.102;2022-09-09T03:57:37;99542.22;;;19.13;62.97
27805;BME280;15183;51.350;11.102;2022-09-09T04:00:06;99524.09;;;19.05;62.99
27805;BME280;15183;51.350;11.102;2022-09-09T04:02:33;99507.94;;;18.86;62.83
27805;BME280;15183;51.350;11.102;2022-09-09T04:04:59;99509.88;;;18.80;63.13
27805;BME280;15183;51.350;11.102;2022-09-09T04:07:26;99552.09;;;18.99;63.16
27805;BME280;15183;51.350;11.102;2022-09-09T04:09:54;99496.09;;;18.68;63.45
27805;BME280;15183;51.350;11.102;2022-09-09T04:12:20;99457.47;;;18.44;62.85
27805;BME280;15183;51.350;11.102;2022-09-09T04:14:48;99518.22;;;18.78;63.01
27805;BME280;15183;51.350;11.102;2022-09-09T04:17:15;99529.41;;;18.86;63.71
27805;BME280;15183;51.350;11.102;2022-09-09T04:19:44;99452.88;;;18.26;63.15
27805;BME280;15183;51.350;11.102;2022-09-09T04:22:11;99530.34;;;18.76;63.88
27805;BME280;15183;51.350;11.102;2022-09-09T04:24:37;99537.38;;;18.72;63.70
27805;BME280;15183;51.350;11.102;2022-09-09T04:27:04;99504.69;;;18.45;63.51
27805;BME280;15183;51.350;11.102;2022-09-09T04:29:30;99547.19;;;18.82;63.76
27805;BME280;15183;51.350;11.102;2022-09-09T04:31:56;99521.44;;;18.80;63.44
27805;BME280;15183;51.350;11.102;2022-09-09T04:34:23;99525.25;;;18.93;63.02
27805;BME280;15183;51.350;11.102;2022-09-09T04:36:49;99534.25;;;19.08;63.65
27805;BME280;15183;51.350;11.102;2022-09-09T04:39:17;99471.78;;;18.59;63.23
27805;BME280;15183;51.350;11.102;2022-09-09T04:41:45;99465.56;;;18.63;63.05
27805;BME280;15183;51.350;11.102;2022-09-09T04:44:13;99490.41;;;18.69;63.53
27805;BME280;15183;51.350;11.102;2022-09-09T04:46:39;99535.34;;;19.07;63.41
27805;BME280;15183;51.350;11.102;2022-09-09T04:49:07;99494.25;;;18.63;63.58
27805;BME280;15183;51.350;11.102;2022-09-09T04:51:33;99473.28;;;18.46;64.19
27805;BME280;15183;51.350;11.102;2022-09-09T04:54:00;99529.47;;;18.80;64.45
27805;BME280;15183;51.350;11.102;2022-09-09T04:56:26;99484.81;;;18.46;64.63
27805;BME280;15183;51.350;11.102;2022-09-09T04:58:53;99547.19;;;18.82;65.16
27805;BME280;15183;51.350;11.102;2022-09-09T05:01:21;99542.09;;;18.80;64.71
27805;BME280;15183;51.350;11.102;2022-09-09T05:03:49;99532.13;;;18.61;65.15
27805;BME280;15183;51.350;11.102;2022-09-09T05:06:21;99546.78;;;18.69;65.23
27805;BME280;15183;51.350;11.102;2022-09-09T05:08:48;99558.78;;;18.77;65.08
27805;BME280;15183;51.350;11.102;2022-09-09T05:11:30;99542.88;;;18.61;64.92
27805;BME280;15183;51.350;11.102;2022-09-09T05:13:58;99567.84;;;18.81;64.99
27805;BME280;15183;51.350;11.102;2022-09-09T05:16:24;99561.38;;;18.82;65.33
27805;BME280;15183;51.350;11.102;2022-09-09T05:18:51;99555.31;;;18.76;65.03
27805;BME280;15183;51.350;11.102;2022-09-09T05:21:19;99510.56;;;18.47;64.81
27805;BME280;15183;51.350;11.102;2022-09-09T05:23:46;99523.72;;;18.44;65.36
27805;BME280;15183;51.350;11.102;2022-09-09T05:26:16;99535.22;;;18.49;65.71
27805;BME280;15183;51.350;11.102;2022-09-09T05:28:42;99533.31;;;18.50;65.48
27805;BME280;15183;51.350;11.102;2022-09-09T05:31:10;99520.03;;;18.40;65.52
27805;BME280;15183;51.350;11.102;2022-09-09T05:33:43;99545.81;;;18.60;65.08
27805;BME280;15183;51.350;11.102;2022-09-09T05:36:14;99564.00;;;18.87;65.09
27805;BME280;15183;51.350;11.102;2022-09-09T05:38:42;99547.00;;;18.73;65.58
27805;BME280;15183;51.350;11.102;2022-09-09T05:41:10;99536.91;;;18.64;65.53
27805;BME280;15183;51.350;11.102;2022-09-09T05:43:42;99538.44;;;18.71;65.82
27805;BME280;15183;51.350;11.102;2022-09-09T05:46:22;99579.19;;;18.97;65.65
27805;BME280;15183;51.350;11.102;2022-09-09T05:48:50;99498.94;;;18.52;65.65
27805;BME280;15183;51.350;11.102;2022-09-09T05:51:24;99582.94;;;19.01;65.18
27805;BME280;15183;51.350;11.102;2022-09-09T05:53:51;99563.66;;;18.94;65.66
27805;BME280;15183;51.350;11.102;2022-09-09T05:56:23;99559.06;;;19.00;65.11
27805;BME280;15183;51.350;11.102;2022-09-09T05:58:52;99569.66;;;19.10;65.12
27805;BME280;15183;51.350;11.102;2022-09-09T06:01:22;99572.28;;;19.34;64.77
27805;BME280;15183;51.350;11.102;2022-09-09T06:03:50;99557.09;;;19.24;64.68
27805;BME280;15183;51.350;11.102;2022-09-09T06:06:23;99538.97;;;19.16;64.55
27805;BME280;15183;51.350;11.102;2022-09-09T06:08:55;99567.72;;;19.35;64.93
27805;BME280;15183;51.350;11.102;2022-09-09T06:11:26;99589.63;;;19.42;64.99
27805;BME280;15183;51.350;11.102;2022-09-09T06:13:53;99512.34;;;19.01;64.78
27805;BME280;15183;51.350;11.102;2022-09-09T06:16:25;99571.47;;;19.53;64.62
27805;BME280;15183;51.350;11.102;2022-09-09T06:18:54;99503.59;;;19.28;64.48
27805;BME280;15183;51.350;11.102;2022-09-09T06:21:28;99521.13;;;19.59;64.51
27805;BME280;15183;51.350;11.102;2022-09-09T06:23:56;99564.16;;;19.92;64.27
27805;BME280;15183;51.350;11.102;2022-09-09T06:26:28;99575.09;;;20.15;63.58
27805;BME280;15183;51.350;11.102;2022-09-09T06:28:56;99519.53;;;19.91;63.64
27805;BME280;15183;51.350;11.102;2022-09-09T06:31:27;99578.59;;;20.43;63.39
27805;BME280;15183;51.350;11.102;2022-09-09T06:33:58;99550.91;;;20.29;63.38
27805;BME280;15183;51.350;11.102;2022-09-09T06:36:30;99578.13;;;20.55;62.86
27805;BME280;15183;51.350;11.102;2022-09-09T06:38:57;99569.22;;;20.54;63.25
27805;BME280;15183;51.350;11.102;2022-09-09T06:41:27;99549.78;;;20.44;63.66
27805;BME280;15183;51.350;11.102;2022-09-09T06:43:55;99525.16;;;20.22;63.59
27805;BME280;15183;51.350;11.102;2022-09-09T06:46:27;99566.63;;;20.49;63.38
27805;BME280;15183;51.350;11.102;2022-09-09T06:48:54;99563.25;;;20.58;63.63
27805;BME280;15183;51.350;11.102;2022-09-09T06:51:24;99518.19;;;20.35;63.37
27805;BME280;15183;51.350;11.102;2022-09-09T06:53:54;99554.88;;;20.73;63.27
27805;BME280;15183;51.350;11.102;2022-09-09T06:56:30;99519.88;;;20.59;63.77
27805;BME280;15183;51.350;11.102;2022-09-09T06:58:58;99592.72;;;21.19;64.85
27805;BME280;15183;51.350;11.102;2022-09-09T07:01:30;99555.75;;;21.33;65.10
27805;BME280;15183;51.350;11.102;2022-09-09T07:03:59;99579.16;;;21.83;64.59
27805;BME280;15183;51.350;11.102;2022-09-09T07:06:32;99591.22;;;22.40;63.50
27805;BME280;15183;51.350;11.102;2022-09-09T07:09:02;99569.53;;;22.54;62.96
27805;BME280;15183;51.350;11.102;2022-09-09T07:11:34;99594.13;;;23.02;62.06
27805;BME280;15183;51.350;11.102;2022-09-09T07:14:03;99591.13;;;23.21;61.06
27805;BME280;15183;51.350;11.102;2022-09-09T07:16:29;99548.66;;;23.13;60.73
27805;BME280;15183;51.350;11.102;2022-09-09T07:18:57;99513.06;;;23.11;60.29
27805;BME280;15183;51.350;11.102;2022-09-09T07:21:26;99588.09;;;23.76;60.55
27805;BME280;15183;51.350;11.102;2022-09-09T07:23:53;99572.81;;;23.80;59.97
27805;BME280;15183;51.350;11.102;2022-09-09T07:26:23;99590.13;;;24.05;59.68
27805;BME280;15183;51.350;11.102;2022-09-09T07:28:51;99581.81;;;24.19;59.21
27805;BME280;15183;51.350;11.102;2022-09-09T07:31:24;99586.88;;;24.30;58.63
27805;BME280;15183;51.350;11.102;2022-09-09T07:33:54;99568.91;;;24.25;57.97
27805;BME280;15183;51.350;11.102;2022-09-09T07:36:25;99583.66;;;24.36;57.62
27805;BME280;15183;51.350;11.102;2022-09-09T07:38:55;99590.19;;;24.44;58.12
27805;BME280;15183;51.350;11.102;2022-09-09T07:41:33;99593.56;;;24.62;58.31
27805;BME280;15183;51.350;11.102;2022-09-09T07:44:15;99587.19;;;24.67;57.90
27805;BME280;15183;51.350;11.102;2022-09-09T07:46:42;99610.53;;;24.89;58.53
27805;BME280;15183;51.350;11.102;2022-09-09T07:49:09;99602.97;;;25.04;58.09
27805;BME280;15183;51.350;11.102;2022-09-09T07:51:44;99594.94;;;25.28;58.34
27805;BME280;15183;51.350;11.102;2022-09-09T07:54:14;99603.03;;;25.58;57.70
27805;BME280;15183;51.350;11.102;2022-09-09T07:56:41;99548.06;;;25.49;56.78
27805;BME280;15183;51.350;11.102;2022-09-09T07:59:09;99600.97;;;25.89;57.20
27805;BME280;15183;51.350;11.102;2022-09-09T08:01:42;99599.00;;;25.98;56.22
27805;BME280;15183;51.350;11.102;2022-09-09T08:04:13;99591.09;;;26.06;55.72
27805;BME280;15183;51.350;11.102;2022-09-09T08:06:47;99610.03;;;26.27;55.25
27805;BME280;15183;51.350;11.102;2022-09-09T08:09:17;99567.72;;;25.92;54.52
27805;BME280;15183;51.350;11.102;2022-09-09T08:11:44;99588.94;;;26.11;54.16
27805;BME280;15183;51.350;11.102;2022-09-09T08:14:12;99603.25;;;26.21;54.48
27805;BME280;15183;51.350;11.102;2022-09-09T08:16:46;99607.78;;;26.29;54.04
27805;BME280;15183;51.350;11.102;2022-09-09T08:19:13;99610.97;;;26.43;54.38
27805;BME280;15183;51.350;11.102;2022-09-09T08:21:43;99611.19;;;26.63;53.77
27805;BME280;15183;51.350;11.102;2022-09-09T08:24:11;99548.38;;;26.40;53.07
27805;BME280;15183;51.350;11.102;2022-09-09T08:26:47;99615.50;;;27.01;52.96
27805;BME280;15183;51.350;11.102;2022-09-09T08:29:15;99610.72;;;27.11;52.13
27805;BME280;15183;51.350;11.102;2022-09-09T08:31:54;99547.53;;;26.77;51.90
27805;BME280;15183;51.350;11.102;2022-09-09T08:34:22;99621.63;;;27.39;50.93
27805;BME280;15183;51.350;11.102;2022-09-09T08:36:50;99602.22;;;27.53;50.93
27805;BME280;15183;51.350;11.102;2022-09-09T08:39:19;99613.78;;;27.79;50.37
27805;BME280;15183;51.350;11.102;2022-09-09T08:50:35;99617.88;;;28.97;49.25
27805;BME280;15183;51.350;11.102;2022-09-09T08:53:21;99602.97;;;29.11;48.87
27805;BME280;15183;51.350;11.102;2022-09-09T08:55:54;99626.91;;;29.37;48.26
27805;BME280;15183;51.350;11.102;2022-09-09T08:58:28;99624.28;;;29.41;47.20
27805;BME280;15183;51.350;11.102;2022-09-09T09:09:18;99616.31;;;29.16;47.70
27805;BME280;15183;51.350;11.102;2022-09-09T09:11:56;99546.88;;;28.58;47.04
27805;BME280;15183;51.350;11.102;2022-09-09T09:14:30;99555.94;;;28.46;47.22
27805;BME280;15183;51.350;11.102;2022-09-09T09:17:03;99607.38;;;28.80;46.77
27805;BME280;15183;51.350;11.102;2022-09-09T09:19:33;99596.09;;;28.65;46.93
27805;BME280;15183;51.350;11.102;2022-09-09T09:25:19;99603.44;;;28.97;47.13
27805;BME280;15183;51.350;11.102;2022-09-09T09:28:13;99613.41;;;29.25;47.29
27805;BME280;15183;51.350;11.102;2022-09-09T09:31:09;99613.56;;;29.52;46.31
27805;BME280;15183;51.350;11.102;2022-09-09T09:33:51;99596.31;;;29.67;46.38
27805;BME280;15183;51.350;11.102;2022-09-09T09:36:34;99610.91;;;29.98;45.33
27805;BME280;15183;51.350;11.102;2022-09-09T09:39:03;99609.56;;;30.08;45.51
27805;BME280;15183;51.350;11.102;2022-09-09T09:41:40;99593.75;;;29.98;44.81
27805;BME280;15183;51.350;11.102;2022-09-09T09:44:29;99607.56;;;29.85;44.20
27805;BME280;15183;51.350;11.102;2022-09-09T09:47:14;99600.56;;;29.65;45.19
27805;BME280;15183;51.350;11.102;2022-09-09T09:49:54;99579.97;;;29.48;44.36
27805;BME280;15183;51.350;11.102;2022-09-09T09:52:24;99594.38;;;29.48;44.63
27805;BME280;15183;51.350;11.102;2022-09-09T09:54:53;99595.66;;;29.54;44.79
27805;BME280;15183;51.350;11.102;2022-09-09T09:57:29;99603.03;;;29.73;44.70
27805;BME280;15183;51.350;11.102;2022-09-09T10:00:04;99590.41;;;29.85;44.09
27805;BME280;15183;51.350;11.102;2022-09-09T10:02:43;99554.59;;;29.90;43.87
27805;BME280;15183;51.350;11.102;2022-09-09T10:05:28;99591.16;;;30.28;43.10
27805;BME280;15183;51.350;11.102;2022-09-09T10:08:13;99552.59;;;30.10;43.23
27805;BME280;15183;51.350;11.102;2022-09-09T10:19:33;99593.03;;;30.01;43.18
27805;BME280;15183;51.350;11.102;2022-09-09T10:22:27;99576.13;;;29.95;43.28
27805;BME280;15183;51.350;11.102;2022-09-09T10:25:24;99593.66;;;29.94;43.00
27805;BME280;15183;51.350;11.102;2022-09-09T10:28:53;99589.47;;;29.77;43.73
27805;BME280;15183;51.350;11.102;2022-09-09T10:43:46;99595.66;;;29.54;42.94
27805;BME280;15183;51.350;11.102;2022-09-09T10:50:07;99577.91;;;29.25;42.64
27805;BME280;15183;51.350;11.102;2022-09-09T10:52:41;99582.16;;;29.22;42.03
27805;BME280;15183;51.350;11.102;2022-09-09T10:55:18;99581.22;;;29.14;42.07
27805;BME280;15183;51.350;11.102;2022-09-09T10:57:51;99574.69;;;28.99;42.01
27805;BME280;15183;51.350;11.102;2022-09-09T11:00:45;99540.44;;;28.66;41.63
27805;BME280;15183;51.350;11.102;2022-09-09T11:03:22;99583.78;;;28.87;42.07
27805;BME280;15183;51.350;11.102;2022-09-09T11:06:04;99582.19;;;28.86;41.91
27805;BME280;15183;51.350;11.102;2022-09-09T11:08:35;99566.53;;;28.83;41.86
27805;BME280;15183;51.350;11.102;2022-09-09T11:11:34;99574.53;;;28.92;42.15
27805;BME280;15183;51.350;11.102;2022-09-09T11:14:57;99571.09;;;28.95;42.12
27805;BME280;15183;51.350;11.102;2022-09-09T11:17:15;99568.97;;;28.88;42.31
27805;BME280;15183;51.350;11.102;2022-09-09T11:19:45;99559.16;;;28.84;42.07
27805;BME280;15183;51.350;11.102;2022-09-09T11:22:36;99561.63;;;28.73;42.08
27805;BME280;15183;51.350;11.102;2022-09-09T11:25:16;99569.28;;;28.83;42.39
27805;BME280;15183;51.350;11.102;2022-09-09T11:34:18;99568.72;;;28.78;42.38
27805;BME280;15183;51.350;11.102;2022-09-09T11:44:41;99531.09;;;28.67;42.22
27805;BME280;15183;51.350;11.102;2022-09-09T11:47:30;99566.06;;;28.97;42.35
27805;BME280;15183;51.350;11.102;2022-09-09T11:50:29;99563.34;;;28.97;42.45
27805;BME280;15183;51.350;11.102;2022-09-09T11:53:19;99563.75;;;28.99;41.87
27805;BME280;15183;51.350;11.102;2022-09-09T11:58:54;99544.25;;;28.97;41.74
27805;BME280;15183;51.350;11.102;2022-09-09T12:02:22;99550.06;;;29.15;41.66
27805;BME280;15183;51.350;11.102;2022-09-09T12:07:55;99538.44;;;29.38;41.07
27805;BME280;15183;51.350;11.102;2022-09-09T12:10:37;99540.50;;;29.45;40.88
27805;BME280;15183;51.350;11.102;2022-09-09T12:13:20;99546.25;;;29.59;40.53
27805;BME280;15183;51.350;11.102;2022-09-09T12:15:50;99546.38;;;29.67;39.60
27805;BME280;15183;51.350;11.102;2022-09-09T12:18:44;99517.38;;;29.58;39.73
27805;BME280;15183;51.350;11.102;2022-09-09T12:26:54;99526.75;;;29.84;38.29
27805;BME280;15183;51.350;11.102;2022-09-09T12:32:17;99521.56;;;29.75;38.83
27805;BME280;15183;51.350;11.102;2022-09-09T12:35:20;99546.25;;;29.83;39.14
27805;BME280;15183;51.350;11.102;2022-09-09T12:37:56;99510.47;;;29.65;38.36
27805;BME280;15183;51.350;11.102;2022-09-09T12:40:32;99523.16;;;29.77;37.54
27805;BME280;15183;51.350;11.102;2022-09-09T12:43:15;99527.91;;;29.83;37.66
27805;BME280;15183;51.350;11.102;2022-09-09T12:45:43;99523.31;;;29.87;38.20
27805;BME280;15183;51.350;11.102;2022-09-09T12:48:12;99523.81;;;29.93;37.43
27805;BME280;15183;51.350;11.102;2022-09-09T12:50:49;99530.25;;;30.04;37.35
27805;BME280;15183;51.350;11.102;2022-09-09T12:53:26;99528.84;;;30.14;37.27
27805;BME280;15183;51.350;11.102;2022-09-09T12:56:08;99530.59;;;30.26;37.55
27805;BME280;15183;51.350;11.102;2022-09-09T12:58:47;99529.53;;;30.35;37.65
27805;BME280;15183;51.350;11.102;2022-09-09T13:01:33;99518.28;;;30.40;37.70
27805;BME280;15183;51.350;11.102;2022-09-09T13:04:00;99531.34;;;30.50;37.16
27805;BME280;15183;51.350;11.102;2022-09-09T13:06:30;99503.94;;;30.46;37.17
27805;BME280;15183;51.350;11.102;2022-09-09T13:08:59;99513.06;;;30.58;36.73
27805;BME280;15183;51.350;11.102;2022-09-09T13:11:41;99502.09;;;30.54;37.24
27805;BME280;15183;51.350;11.102;2022-09-09T13:14:34;99466.56;;;30.27;37.42
27805;BME280;15183;51.350;11.102;2022-09-09T13:17:05;99499.38;;;30.58;36.98
27805;BME280;15183;51.350;11.102;2022-09-09T13:19:37;99510.25;;;30.51;36.45
27805;BME280;15183;51.350;11.102;2022-09-09T13:22:34;99507.72;;;30.38;36.95
27805;BME280;15183;51.350;11.102;2022-09-09T13:27:39;99502.19;;;30.35;37.43
27805;BME280;15183;51.350;11.102;2022-09-09T13:30:29;99509.63;;;30.34;37.66
27805;BME280;15183;51.350;11.102;2022-09-09T13:35:31;99498.94;;;30.25;37.36
27805;BME280;15183;51.350;11.102;2022-09-09T13:37:59;99445.97;;;29.83;37.62
27805;BME280;15183;51.350;11.102;2022-09-09T13:40:32;99496.25;;;30.02;37.37
27805;BME280;15183;51.350;11.102;2022-09-09T13:42:59;99470.34;;;29.69;37.16
27805;BME280;15183;51.350;11.102;2022-09-09T13:45:26;99484.00;;;29.69;37.57
27805;BME280;15183;51.350;11.102;2022-09-09T13:47:56;99497.94;;;29.64;37.86
27805;BME280;15183;51.350;11.102;2022-09-09T13:50:27;99498.53;;;29.53;37.61
27805;BME280;15183;51.350;11.102;2022-09-09T13:52:57;99427.28;;;28.96;37.79
27805;BME280;15183;51.350;11.102;2022-09-09T13:55:29;99475.16;;;29.32;38.16
27805;BME280;15183;51.350;11.102;2022-09-09T13:58:01;99494.09;;;29.45;37.33
27805;BME280;15183;51.350;11.102;2022-09-09T14:00:34;99488.22;;;29.43;36.92
27805;BME280;15183;51.350;11.102;2022-09-09T14:03:00;99485.56;;;29.46;36.41
27805;BME280;15183;51.350;11.102;2022-09-09T14:05:30;99484.34;;;29.44;36.44
27805;BME280;15183;51.350;11.102;2022-09-09T14:07:58;99445.56;;;29.15;36.13
27805;BME280;15183;51.350;11.102;2022-09-09T14:10:26;99485.50;;;29.43;36.28
27805;BME280;15183;51.350;11.102;2022-09-09T14:12:53;99480.41;;;29.41;35.83
27805;BME280;15183;51.350;11.102;2022-09-09T14:15:19;99484.19;;;29.37;36.26
27805;BME280;15183;51.350;11.102;2022-09-09T14:17:46;99499.13;;;29.43;36.16
27805;BME280;15183;51.350;11.102;2022-09-09T14:20:12;99494.31;;;29.36;36.07
27805;BME280;15183;51.350;11.102;2022-09-09T14:22:42;99464.50;;;29.04;35.54
27805;BME280;15183;51.350;11.102;2022-09-09T14:25:08;99492.25;;;29.10;35.45
27805;BME280;15183;51.350;11.102;2022-09-09T14:27:35;99488.19;;;29.00;35.90
27805;BME280;15183;51.350;11.102;2022-09-09T14:30:01;99444.16;;;28.62;35.54
27805;BME280;15183;51.350;11.102;2022-09-09T14:32:28;99483.16;;;28.82;35.97
27805;BME280;15183;51.350;11.102;2022-09-09T14:34:55;99486.41;;;28.72;36.02
27805;BME280;15183;51.350;11.102;2022-09-09T14:37:21;99495.75;;;28.71;36.31
27805;BME280;15183;51.350;11.102;2022-09-09T14:39:48;99488.56;;;28.63;35.85
27805;BME280;15183;51.350;11.102;2022-09-09T14:42:17;99487.75;;;28.62;36.09
27805;BME280;15183;51.350;11.102;2022-09-09T14:44:43;99468.31;;;28.44;35.72
27805;BME280;15183;51.350;11.102;2022-09-09T14:47:10;99473.47;;;28.49;36.29
27805;BME280;15183;51.350;11.102;2022-09-09T14:49:36;99479.00;;;28.53;35.90
27805;BME280;15183;51.350;11.102;2022-09-09T14:52:04;99476.63;;;28.51;36.24
27805;BME280;15183;51.350;11.102;2022-09-09T14:54:33;99471.13;;;28.48;35.70
27805;BME280;15183;51.350;11.102;2022-09-09T14:57:00;99466.44;;;28.48;35.93
27805;BME280;15183;51.350;11.102;2022-09-09T14:59:26;99468.31;;;28.44;35.56
27805;BME280;15183;51.350;11.102;2022-09-09T15:01:53;99449.50;;;28.39;35.40
27805;BME280;15183;51.350;11.102;2022-09-09T15:04:19;99462.41;;;28.42;35.75
27805;BME280;15183;51.350;11.102;2022-09-09T15:06:46;99450.38;;;28.43;35.94
27805;BME280;15183;51.350;11.102;2022-09-09T15:09:15;99440.66;;;28.26;35.58
27805;BME280;15183;51.350;11.102;2022-09-09T15:11:41;99470.88;;;28.37;35.37